sensor_id;sensor_type;location;lat;lon;timestamp;temperature;humidity
8067;DHT22;4076;48.076;9.118;2023-06-26T00:00:15;14.80;99.90
8067;DHT22;4076;48.076;9.118;2023-06-26T00:02:41;14.70;99.90
8067;DHT22;4076;48.076;9.118;2023-06-26T00:05:07;14.60;99.90
8067;DHT22;4076;48.076;9.118;2023-06-26T00:07:33;14.60;99.90
8067;DHT22;4076;48.076;9.118;2023-06-26T00:09:59;14.60;99.90
8067;DHT22;4076;48.076;9.118;2023-06-26T00:12:26;14.60;99.90
8067;DHT22;4076;48.076;9.118;2023-06-26T00:14:51;14.60;99.90
8067;DHT22;4076;48.076;9.118;2023-06-26T00:17:17;14.60;99.90
8067;DHT22;4076;48.076;9.118;2023-06-26T00:19:43;14.50;99.90
8067;DHT22;4076;48.076;9.118;2023-06-26T00:22:08;14.50;99.90
8067;DHT22;4076;48.076;9.118;2023-06-26T00:24:34;14.50;99.90
8067;DHT22;4076;48.076;9.118;2023-06-26T00:26:59;14.40;99.90
8067;DHT22;4076;48.076;9.118;2023-06-26T00:29:25;14.40;99.90
8067;DHT22;4076;48.076;9.118;2023-06-26T00:31:50;14.40;99.90
8067;DHT22;4076;48.076;9.118;2023-06-26T00:34:16;14.40;99.90
8067;DHT22;4076;48.076;9.118;2023-06-26T00:36:42;14.40;99.90
8067;DHT22;4076;48.076;9.118;2023-06-26T00:39:09;14.30;99.90
8067;DHT22;4076;48.076;9.118;2023-06-26T00:41:36;14.30;99.90
8067;DHT22;4076;48.076;9.118;2023-06-26T00:44:02;14.30;99.90
8067;DHT22;4076;48.076;9.118;2023-06-26T00:46:28;14.30;99.90
8067;DHT22;4076;48.076;9.118;2023-06-26T00:48:55;14.30;99.90
8067;DHT22;4076;48.076;9.118;2023-06-26T00:51:22;14.30;99.90
8067;DHT22;4076;48.076;9.118;2023-06-26T00:53:48;14.20;99.90
8067;DHT22;4076;48.076;9.118;2023-06-26T00:56:15;14.20;99.90
8067;DHT22;4076;48.076;9.118;2023-06-26T00:58:42;14.10;99.90
8067;DHT22;4076;48.076;9.118;2023-06-26T01:01:08;14.10;99.90
8067;DHT22;4076;48.076;9.118;2023-06-26T01:03:34;14.10;99.90
8067;DHT22;4076;48.076;9.118;2023-06-26T01:06:00;14.10;99.90
8067;DHT22;4076;48.076;9.118;2023-06-26T01:08:27;14.10;99.90
8067;DHT22;4076;48.076;9.118;2023-06-26T01:10:53;14.00;99.90
8067;DHT22;4076;48.076;9.118;2023-06-26T01:13:19;13.90;99.90
8067;DHT22;4076;48.076;9.118;2023-06-26T01:15:46;13.90;99.90
8067;DHT22;4076;48.076;9.118;2023-06-26T01:18:12;13.80;99.90
8067;DHT22;4076;48.076;9.118;2023-06-26T01:20:41;13.80;99.90
8067;DHT22;4076;48.076;9.118;2023-06-26T01:23:21;13.80;99.90
8067;DHT22;4076;48.076;9.118;2023-06-26T01:26:19;13.80;99.90
8067;DHT22;4076;48.076;9.118;2023-06-26T01:28:45;13.90;99.90
8067;DHT22;4076;48.076;9.118;2023-06-26T01:31:11;13.90;99.90
8067;DHT22;4076;48.076;9.118;2023-06-26T01:33:39;13.80;99.90
8067;DHT22;4076;48.076;9.118;2023-06-26T01:36:05;13.80;99.90
8067;DHT22;4076;48.076;9.118;2023-06-26T01:38:31;13.70;99.90
8067;DHT22;4076;48.076;9.118;2023-06-26T01:40:57;13.70;99.90
8067;DHT22;4076;48.076;9.118;2023-06-26T01:46:39;13.70;99.90
8067;DHT22;4076;48.076;9.118;2023-06-26T01:54:46;13.60;99.90
8067;DHT22;4076;48.076;9.118;2023-06-26T01:57:14;13.50;99.90
8067;DHT22;4076;48.076;9.118;2023-06-26T01:59:44;13.50;99.90
8067;DHT22;4076;48.076;9.118;2023-06-26T02:02:10;13.50;99.90
8067;DHT22;4076;48.076;9.118;2023-06-26T02:04:36;13.50;99.90
8067;DHT22;4076;48.076;9.118;2023-06-26T02:07:03;13.50;99.90
8067;DHT22;4076;48.076;9.118;2023-06-26T02:09:28;13.50;99.90
8067;DHT22;4076;48.076;9.118;2023-06-26T02:11:54;13.50;99.90
8067;DHT22;4076;48.076;9.118;2023-06-26T02:14:20;13.60;99.90
8067;DHT22;4076;48.076;9.118;2023-06-26T02:16:45;13.60;99.90
8067;DHT22;4076;48.076;9.118;2023-06-26T02:19:11;13.70;99.90
8067;DHT22;4076;48.076;9.118;2023-06-26T02:21:36;13.70;99.90
8067;DHT22;4076;48.076;9.118;2023-06-26T02:24:04;13.70;99.90
8067;DHT22;4076;48.076;9.118;2023-06-26T02:26:30;13.60;99.90
8067;DHT22;4076;48.076;9.118;2023-06-26T02:28:55;13.60;99.90
8067;DHT22;4076;48.076;9.118;2023-06-26T02:31:21;13.60;99.90
8067;DHT22;4076;48.076;9.118;2023-06-26T02:33:46;13.50;99.90
8067;DHT22;4076;48.076;9.118;2023-06-26T02:36:12;13.50;99.90
8067;DHT22;4076;48.076;9.118;2023-06-26T02:38:38;13.50;99.90
8067;DHT22;4076;48.076;9.118;2023-06-26T02:41:03;13.50;99.90
8067;DHT22;4076;48.076;9.118;2023-06-26T02:43:29;13.50;99.90
8067;DHT22;4076;48.076;9.118;2023-06-26T02:45:55;13.50;99.90
8067;DHT22;4076;48.076;9.118;2023-06-26T02:48:20;13.60;99.90
8067;DHT22;4076;48.076;9.118;2023-06-26T02:50:46;13.60;99.90
8067;DHT22;4076;48.076;9.118;2023-06-26T02:53:12;13.60;99.90
8067;DHT22;4076;48.076;9.118;2023-06-26T02:55:38;13.60;99.90
8067;DHT22;4076;48.076;9.118;2023-06-26T02:58:03;13.70;99.90
8067;DHT22;4076;48.076;9.118;2023-06-26T03:00:30;13.70;99.90
8067;DHT22;4076;48.076;9.118;2023-06-26T03:02:56;13.60;99.90
8067;DHT22;4076;48.076;9.118;2023-06-26T03:05:21;13.70;99.90
8067;DHT22;4076;48.076;9.118;2023-06-26T03:07:49;13.70;99.90
8067;DHT22;4076;48.076;9.118;2023-06-26T03:10:15;13.60;99.90
8067;DHT22;4076;48.076;9.118;2023-06-26T03:12:40;13.50;99.90
8067;DHT22;4076;48.076;9.118;2023-06-26T03:15:06;13.40;99.90
8067;DHT22;4076;48.076;9.118;2023-06-26T03:17:32;13.40;99.90
8067;DHT22;4076;48.076;9.118;2023-06-26T03:19:57;13.40;99.90
8067;DHT22;4076;48.076;9.118;2023-06-26T03:22:23;13.40;99.90
8067;DHT22;4076;48.076;9.118;2023-06-26T03:24:48;13.40;99.90
8067;DHT22;4076;48.076;9.118;2023-06-26T03:27:14;13.40;99.90
8067;DHT22;4076;48.076;9.118;2023-06-26T03:29:40;13.40;99.90
8067;DHT22;4076;48.076;9.118;2023-06-26T03:32:06;13.40;99.90
8067;DHT22;4076;48.076;9.118;2023-06-26T03:34:32;13.30;99.90
8067;DHT22;4076;48.076;9.118;2023-06-26T03:36:58;13.20;99.90
8067;DHT22;4076;48.076;9.118;2023-06-26T03:39:23;13.20;99.90
8067;DHT22;4076;48.076;9.118;2023-06-26T03:41:49;13.10;99.90
8067;DHT22;4076;48.076;9.118;2023-06-26T03:44:14;13.10;99.90
8067;DHT22;4076;48.076;9.118;2023-06-26T03:46:41;13.10;99.90
8067;DHT22;4076;48.076;9.118;2023-06-26T03:49:06;13.10;99.90
8067;DHT22;4076;48.076;9.118;2023-06-26T03:51:32;13.10;99.90
8067;DHT22;4076;48.076;9.118;2023-06-26T03:53:57;13.10;99.90
8067;DHT22;4076;48.076;9.118;2023-06-26T03:56:23;13.00;99.90
8067;DHT22;4076;48.076;9.118;2023-06-26T03:58:48;12.90;99.90
8067;DHT22;4076;48.076;9.118;2023-06-26T04:01:14;12.90;99.90
8067;DHT22;4076;48.076;9.118;2023-06-26T04:03:40;12.90;99.90
8067;DHT22;4076;48.076;9.118;2023-06-26T04:06:05;12.90;99.90
8067;DHT22;4076;48.076;9.118;2023-06-26T04:08:31;12.90;99.90
8067;DHT22;4076;48.076;9.118;2023-06-26T04:10:56;13.00;99.90
8067;DHT22;4076;48.076;9.118;2023-06-26T04:13:24;13.00;99.90
8067;DHT22;4076;48.076;9.118;2023-06-26T04:15:49;13.10;99.90
8067;DHT22;4076;48.076;9.118;2023-06-26T04:18:15;13.20;99.90
8067;DHT22;4076;48.076;9.118;2023-06-26T04:21:03;13.20;99.90
8067;DHT22;4076;48.076;9.118;2023-06-26T04:23:27;13.20;99.90
8067;DHT22;4076;48.076;9.118;2023-06-26T04:25:53;13.30;99.90
8067;DHT22;4076;48.076;9.118;2023-06-26T04:28:18;13.30;99.90
8067;DHT22;4076;48.076;9.118;2023-06-26T04:30:44;13.40;99.90
8067;DHT22;4076;48.076;9.118;2023-06-26T04:33:09;13.50;99.90
8067;DHT22;4076;48.076;9.118;2023-06-26T04:35:37;13.60;99.90
8067;DHT22;4076;48.076;9.118;2023-06-26T04:38:02;13.70;99.90
8067;DHT22;4076;48.076;9.118;2023-06-26T04:40:28;13.90;99.90
8067;DHT22;4076;48.076;9.118;2023-06-26T04:42:54;14.00;99.90
8067;DHT22;4076;48.076;9.118;2023-06-26T04:45:19;14.30;99.90
8067;DHT22;4076;48.076;9.118;2023-06-26T04:47:45;14.60;99.90
8067;DHT22;4076;48.076;9.118;2023-06-26T04:50:10;14.80;99.90
8067;DHT22;4076;48.076;9.118;2023-06-26T04:52:36;15.10;99.90
8067;DHT22;4076;48.076;9.118;2023-06-26T04:55:01;15.30;99.90
8067;DHT22;4076;48.076;9.118;2023-06-26T04:57:27;15.70;99.90
8067;DHT22;4076;48.076;9.118;2023-06-26T04:59:52;16.00;99.90
8067;DHT22;4076;48.076;9.118;2023-06-26T05:02:18;16.30;99.90
8067;DHT22;4076;48.076;9.118;2023-06-26T05:04:43;16.50;99.90
8067;DHT22;4076;48.076;9.118;2023-06-26T05:07:10;16.70;99.90
8067;DHT22;4076;48.076;9.118;2023-06-26T05:09:35;16.70;99.90
8067;DHT22;4076;48.076;9.118;2023-06-26T05:12:01;16.80;99.90
8067;DHT22;4076;48.076;9.118;2023-06-26T05:14:27;16.80;99.90
8067;DHT22;4076;48.076;9.118;2023-06-26T05:16:53;16.80;99.90
8067;DHT22;4076;48.076;9.118;2023-06-26T05:19:18;16.80;99.90
8067;DHT22;4076;48.076;9.118;2023-06-26T05:21:44;16.90;99.90
8067;DHT22;4076;48.076;9.118;2023-06-26T05:24:11;16.90;99.90
8067;DHT22;4076;48.076;9.118;2023-06-26T05:26:38;16.90;99.90
8067;DHT22;4076;48.076;9.118;2023-06-26T05:29:04;16.90;99.90
8067;DHT22;4076;48.076;9.118;2023-06-26T05:31:32;16.90;99.90
8067;DHT22;4076;48.076;9.118;2023-06-26T05:34:01;17.00;99.90
8067;DHT22;4076;48.076;9.118;2023-06-26T05:36:28;17.20;99.90
8067;DHT22;4076;48.076;9.118;2023-06-26T05:38:54;17.50;99.90
8067;DHT22;4076;48.076;9.118;2023-06-26T05:41:22;17.70;99.90
8067;DHT22;4076;48.076;9.118;2023-06-26T05:43:47;17.90;99.90
8067;DHT22;4076;48.076;9.118;2023-06-26T05:46:13;18.00;99.90
8067;DHT22;4076;48.076;9.118;2023-06-26T05:48:39;18.00;99.90
8067;DHT22;4076;48.076;9.118;2023-06-26T05:51:05;18.10;99.90
8067;DHT22;4076;48.076;9.118;2023-06-26T05:53:31;18.20;99.90
8067;DHT22;4076;48.076;9.118;2023-06-26T05:55:56;18.30;99.90
8067;DHT22;4076;48.076;9.118;2023-06-26T05:58:24;18.40;99.90
8067;DHT22;4076;48.076;9.118;2023-06-26T06:00:51;18.70;99.90
8067;DHT22;4076;48.076;9.118;2023-06-26T06:03:17;18.90;99.90
8067;DHT22;4076;48.076;9.118;2023-06-26T06:05:42;19.00;99.90
8067;DHT22;4076;48.076;9.118;2023-06-26T06:08:08;19.20;99.90
8067;DHT22;4076;48.076;9.118;2023-06-26T06:10:33;19.40;99.90
8067;DHT22;4076;48.076;9.118;2023-06-26T06:12:59;19.50;99.90
8067;DHT22;4076;48.076;9.118;2023-06-26T06:15:24;19.60;99.90
8067;DHT22;4076;48.076;9.118;2023-06-26T06:17:50;19.80;99.90
8067;DHT22;4076;48.076;9.118;2023-06-26T06:20:16;20.00;99.90
8067;DHT22;4076;48.076;9.118;2023-06-26T06:22:42;20.10;99.90
8067;DHT22;4076;48.076;9.118;2023-06-26T06:25:07;20.20;99.90
8067;DHT22;4076;48.076;9.118;2023-06-26T06:27:33;20.40;99.90
8067;DHT22;4076;48.076;9.118;2023-06-26T06:29:59;20.60;99.90
8067;DHT22;4076;48.076;9.118;2023-06-26T06:32:24;20.70;99.90
8067;DHT22;4076;48.076;9.118;2023-06-26T06:34:50;20.80;99.90
8067;DHT22;4076;48.076;9.118;2023-06-26T06:37:15;20.90;99.90
8067;DHT22;4076;48.076;9.118;2023-06-26T06:39:41;21.00;99.90
8067;DHT22;4076;48.076;9.118;2023-06-26T06:42:07;21.10;99.90
8067;DHT22;4076;48.076;9.118;2023-06-26T06:44:33;21.20;99.90
8067;DHT22;4076;48.076;9.118;2023-06-26T06:46:58;21.40;99.90
8067;DHT22;4076;48.076;9.118;2023-06-26T06:49:24;21.60;99.90
8067;DHT22;4076;48.076;9.118;2023-06-26T06:51:50;21.80;99.90
8067;DHT22;4076;48.076;9.118;2023-06-26T06:54:16;22.00;99.90
8067;DHT22;4076;48.076;9.118;2023-06-26T06:56:42;22.10;99.90
8067;DHT22;4076;48.076;9.118;2023-06-26T06:59:08;22.30;99.90
8067;DHT22;4076;48.076;9.118;2023-06-26T07:01:34;22.60;99.90
8067;DHT22;4076;48.076;9.118;2023-06-26T07:03:59;22.90;99.60
8067;DHT22;4076;48.076;9.118;2023-06-26T07:06:25;23.30;98.10
8067;DHT22;4076;48.076;9.118;2023-06-26T07:08:51;23.80;96.80
8067;DHT22;4076;48.076;9.118;2023-06-26T07:11:16;24.40;95.80
8067;DHT22;4076;48.076;9.118;2023-06-26T07:13:42;24.90;92.90
8067;DHT22;4076;48.076;9.118;2023-06-26T07:16:07;25.20;90.20
8067;DHT22;4076;48.076;9.118;2023-06-26T07:18:37;25.30;85.90
8067;DHT22;4076;48.076;9.118;2023-06-26T07:21:03;25.60;84.90
8067;DHT22;4076;48.076;9.118;2023-06-26T07:23:29;25.70;84.00
8067;DHT22;4076;48.076;9.118;2023-06-26T07:25:54;25.80;83.50
8067;DHT22;4076;48.076;9.118;2023-06-26T07:28:20;26.00;82.00
8067;DHT22;4076;48.076;9.118;2023-06-26T07:30:45;26.20;80.50
8067;DHT22;4076;48.076;9.118;2023-06-26T07:33:11;26.50;78.60
8067;DHT22;4076;48.076;9.118;2023-06-26T07:35:36;26.80;77.50
8067;DHT22;4076;48.076;9.118;2023-06-26T07:38:02;27.00;74.50
8067;DHT22;4076;48.076;9.118;2023-06-26T07:40:27;27.40;73.00
8067;DHT22;4076;48.076;9.118;2023-06-26T07:42:53;27.70;71.50
8067;DHT22;4076;48.076;9.118;2023-06-26T07:45:19;28.00;68.20
8067;DHT22;4076;48.076;9.118;2023-06-26T07:47:45;28.20;66.70
8067;DHT22;4076;48.076;9.118;2023-06-26T07:50:11;28.60;67.00
8067;DHT22;4076;48.076;9.118;2023-06-26T07:52:37;29.50;65.90
8067;DHT22;4076;48.076;9.118;2023-06-26T07:55:02;30.40;57.80
8067;DHT22;4076;48.076;9.118;2023-06-26T07:57:29;31.70;55.40
8067;DHT22;4076;48.076;9.118;2023-06-26T07:59:55;33.30;52.10
8067;DHT22;4076;48.076;9.118;2023-06-26T08:02:21;34.30;44.80
8067;DHT22;4076;48.076;9.118;2023-06-26T08:04:47;35.20;41.00
8067;DHT22;4076;48.076;9.118;2023-06-26T08:07:12;36.20;40.50
8067;DHT22;4076;48.076;9.118;2023-06-26T08:09:39;37.20;38.70
8067;DHT22;4076;48.076;9.118;2023-06-26T08:12:05;37.50;35.60
8067;DHT22;4076;48.076;9.118;2023-06-26T08:14:31;37.70;34.80
8067;DHT22;4076;48.076;9.118;2023-06-26T08:16:57;38.10;34.70
8067;DHT22;4076;48.076;9.118;2023-06-26T08:19:22;38.90;33.80
8067;DHT22;4076;48.076;9.118;2023-06-26T08:21:48;39.80;31.90
8067;DHT22;4076;48.076;9.118;2023-06-26T08:24:14;40.80;30.70
8067;DHT22;4076;48.076;9.118;2023-06-26T08:26:47;41.60;30.00
8067;DHT22;4076;48.076;9.118;2023-06-26T08:29:13;42.50;29.60
8067;DHT22;4076;48.076;9.118;2023-06-26T08:31:39;43.30;28.80
8067;DHT22;4076;48.076;9.118;2023-06-26T08:34:05;44.30;31.30
8067;DHT22;4076;48.076;9.118;2023-06-26T08:36:32;44.40;27.60
8067;DHT22;4076;48.076;9.118;2023-06-26T08:38:58;45.20;31.70
8067;DHT22;4076;48.076;9.118;2023-06-26T08:41:24;45.60;33.20
8067;DHT22;4076;48.076;9.118;2023-06-26T08:43:50;45.70;33.50
8067;DHT22;4076;48.076;9.118;2023-06-26T08:46:18;46.10;33.70
8067;DHT22;4076;48.076;9.118;2023-06-26T08:48:48;46.70;34.10
8067;DHT22;4076;48.076;9.118;2023-06-26T08:51:17;46.70;30.60
8067;DHT22;4076;48.076;9.118;2023-06-26T08:53:52;46.00;29.00
8067;DHT22;4076;48.076;9.118;2023-06-26T08:56:19;46.00;29.10
8067;DHT22;4076;48.076;9.118;2023-06-26T08:58:47;45.00;28.30
8067;DHT22;4076;48.076;9.118;2023-06-26T09:01:13;44.20;29.80
8067;DHT22;4076;48.076;9.118;2023-06-26T09:03:39;43.40;29.20
8067;DHT22;4076;48.076;9.118;2023-06-26T09:06:07;43.00;30.60
8067;DHT22;4076;48.076;9.118;2023-06-26T09:08:32;42.70;30.80
8067;DHT22;4076;48.076;9.118;2023-06-26T09:10:58;42.40;31.30
8067;DHT22;4076;48.076;9.118;2023-06-26T09:13:24;42.60;33.60
8067;DHT22;4076;48.076;9.118;2023-06-26T09:15:53;41.90;33.70
8067;DHT22;4076;48.076;9.118;2023-06-26T09:18:21;41.30;38.30
8067;DHT22;4076;48.076;9.118;2023-06-26T09:20:47;42.00;31.80
8067;DHT22;4076;48.076;9.118;2023-06-26T09:23:13;43.30;27.50
8067;DHT22;4076;48.076;9.118;2023-06-26T09:25:42;44.60;26.80
8067;DHT22;4076;48.076;9.118;2023-06-26T09:28:08;45.60;26.70
8067;DHT22;4076;48.076;9.118;2023-06-26T09:30:34;46.10;25.80
8067;DHT22;4076;48.076;9.118;2023-06-26T09:33:17;46.60;27.70
8067;DHT22;4076;48.076;9.118;2023-06-26T09:35:48;47.70;23.30
8067;DHT22;4076;48.076;9.118;2023-06-26T09:38:14;47.70;23.70
8067;DHT22;4076;48.076;9.118;2023-06-26T09:40:43;46.80;23.60
8067;DHT22;4076;48.076;9.118;2023-06-26T09:43:09;44.60;23.70
8067;DHT22;4076;48.076;9.118;2023-06-26T09:45:39;43.50;25.20
8067;DHT22;4076;48.076;9.118;2023-06-26T09:48:05;43.30;25.60
8067;DHT22;4076;48.076;9.118;2023-06-26T09:50:34;43.50;25.60
8067;DHT22;4076;48.076;9.118;2023-06-26T09:53:12;43.20;25.70
8067;DHT22;4076;48.076;9.118;2023-06-26T09:55:41;42.40;25.30
8067;DHT22;4076;48.076;9.118;2023-06-26T09:58:10;41.50;25.80
8067;DHT22;4076;48.076;9.118;2023-06-26T10:00:40;40.40;26.70
8067;DHT22;4076;48.076;9.118;2023-06-26T10:03:06;39.60;27.70
8067;DHT22;4076;48.076;9.118;2023-06-26T10:05:31;38.80;28.40
8067;DHT22;4076;48.076;9.118;2023-06-26T10:07:58;38.40;28.50
8067;DHT22;4076;48.076;9.118;2023-06-26T10:10:25;37.80;28.80
8067;DHT22;4076;48.076;9.118;2023-06-26T10:13:00;37.60;29.00
8067;DHT22;4076;48.076;9.118;2023-06-26T10:15:28;37.20;29.20
8067;DHT22;4076;48.076;9.118;2023-06-26T10:17:56;37.10;29.40
8067;DHT22;4076;48.076;9.118;2023-06-26T10:20:22;36.90;29.30
8067;DHT22;4076;48.076;9.118;2023-06-26T10:22:49;36.60;29.80
8067;DHT22;4076;48.076;9.118;2023-06-26T10:25:18;36.10;30.00
8067;DHT22;4076;48.076;9.118;2023-06-26T10:27:49;35.60;30.20
8067;DHT22;4076;48.076;9.118;2023-06-26T10:30:21;35.00;31.80
8067;DHT22;4076;48.076;9.118;2023-06-26T10:32:48;34.40;34.50
8067;DHT22;4076;48.076;9.118;2023-06-26T10:35:14;33.90;34.70
8067;DHT22;4076;48.076;9.118;2023-06-26T10:37:50;33.30;35.40
8067;DHT22;4076;48.076;9.118;2023-06-26T10:40:25;33.00;36.50
8067;DHT22;4076;48.076;9.118;2023-06-26T10:42:51;33.20;36.70
8067;DHT22;4076;48.076;9.118;2023-06-26T10:45:30;33.50;36.60
8067;DHT22;4076;48.076;9.118;2023-06-26T10:47:57;33.50;37.60
8067;DHT22;4076;48.076;9.118;2023-06-26T10:50:25;33.40;37.20
8067;DHT22;4076;48.076;9.118;2023-06-26T10:55:36;32.50;38.10
8067;DHT22;4076;48.076;9.118;2023-06-26T10:58:02;32.10;38.80
8067;DHT22;4076;48.076;9.118;2023-06-26T11:00:28;31.80;39.70
8067;DHT22;4076;48.076;9.118;2023-06-26T11:02:54;31.60;40.40
8067;DHT22;4076;48.076;9.118;2023-06-26T11:05:27;31.80;40.90
8067;DHT22;4076;48.076;9.118;2023-06-26T11:08:06;32.10;41.00
8067;DHT22;4076;48.076;9.118;2023-06-26T11:10:53;32.50;40.50
8067;DHT22;4076;48.076;9.118;2023-06-26T11:13:19;32.60;40.20
8067;DHT22;4076;48.076;9.118;2023-06-26T11:15:46;32.30;39.20
8067;DHT22;4076;48.076;9.118;2023-06-26T11:18:12;32.00;40.00
8067;DHT22;4076;48.076;9.118;2023-06-26T11:20:38;31.70;40.70
8067;DHT22;4076;48.076;9.118;2023-06-26T11:23:04;31.40;40.50
8067;DHT22;4076;48.076;9.118;2023-06-26T11:25:38;31.00;40.80
8067;DHT22;4076;48.076;9.118;2023-06-26T11:28:05;30.70;41.00
8067;DHT22;4076;48.076;9.118;2023-06-26T11:30:31;30.40;42.30
8067;DHT22;4076;48.076;9.118;2023-06-26T11:33:08;30.20;41.90
8067;DHT22;4076;48.076;9.118;2023-06-26T11:35:34;30.30;41.50
8067;DHT22;4076;48.076;9.118;2023-06-26T11:38:01;30.40;41.50
8067;DHT22;4076;48.076;9.118;2023-06-26T11:40:31;30.70;41.30
8067;DHT22;4076;48.076;9.118;2023-06-26T11:43:03;31.10;40.80
8067;DHT22;4076;48.076;9.118;2023-06-26T11:45:30;31.50;39.70
8067;DHT22;4076;48.076;9.118;2023-06-26T11:47:56;31.80;39.40
8067;DHT22;4076;48.076;9.118;2023-06-26T11:50:23;32.00;38.60
8067;DHT22;4076;48.076;9.118;2023-06-26T11:52:58;32.10;38.20
8067;DHT22;4076;48.076;9.118;2023-06-26T11:55:25;32.10;37.80
8067;DHT22;4076;48.076;9.118;2023-06-26T11:57:53;32.20;37.70
8067;DHT22;4076;48.076;9.118;2023-06-26T12:00:20;32.30;37.70
8067;DHT22;4076;48.076;9.118;2023-06-26T12:02:46;32.30;38.40
8067;DHT22;4076;48.076;9.118;2023-06-26T12:05:18;32.00;37.80
8067;DHT22;4076;48.076;9.118;2023-06-26T12:07:47;31.70;38.00
8067;DHT22;4076;48.076;9.118;2023-06-26T12:10:14;31.40;37.90
8067;DHT22;4076;48.076;9.118;2023-06-26T12:12:40;31.20;38.50
8067;DHT22;4076;48.076;9.118;2023-06-26T12:15:07;31.00;39.20
8067;DHT22;4076;48.076;9.118;2023-06-26T12:17:33;31.00;39.40
8067;DHT22;4076;48.076;9.118;2023-06-26T12:20:02;31.00;39.60
8067;DHT22;4076;48.076;9.118;2023-06-26T12:22:34;31.00;39.80
8067;DHT22;4076;48.076;9.118;2023-06-26T12:25:00;30.90;40.20
8067;DHT22;4076;48.076;9.118;2023-06-26T12:27:27;30.70;41.10
8067;DHT22;4076;48.076;9.118;2023-06-26T12:29:54;30.50;41.00
8067;DHT22;4076;48.076;9.118;2023-06-26T12:32:23;30.40;42.50
8067;DHT22;4076;48.076;9.118;2023-06-26T12:34:50;30.10;42.60
8067;DHT22;4076;48.076;9.118;2023-06-26T12:37:16;30.00;42.40
8067;DHT22;4076;48.076;9.118;2023-06-26T12:42:15;29.80;41.80
8067;DHT22;4076;48.076;9.118;2023-06-26T12:44:41;29.90;42.50
8067;DHT22;4076;48.076;9.118;2023-06-26T12:47:06;30.00;42.60
8067;DHT22;4076;48.076;9.118;2023-06-26T12:49:41;30.10;42.60
8067;DHT22;4076;48.076;9.118;2023-06-26T12:52:09;30.30;42.50
8067;DHT22;4076;48.076;9.118;2023-06-26T12:54:35;30.40;42.60
8067;DHT22;4076;48.076;9.118;2023-06-26T12:57:02;30.50;42.80
8067;DHT22;4076;48.076;9.118;2023-06-26T12:59:29;30.60;42.40
8067;DHT22;4076;48.076;9.118;2023-06-26T13:01:55;30.70;42.80
8067;DHT22;4076;48.076;9.118;2023-06-26T13:04:21;30.80;42.50
8067;DHT22;4076;48.076;9.118;2023-06-26T13:06:47;30.90;43.00
8067;DHT22;4076;48.076;9.118;2023-06-26T13:09:12;30.80;41.90
8067;DHT22;4076;48.076;9.118;2023-06-26T13:11:38;30.60;42.30
8067;DHT22;4076;48.076;9.118;2023-06-26T13:14:04;30.50;42.50
8067;DHT22;4076;48.076;9.118;2023-06-26T13:16:30;30.30;41.90
8067;DHT22;4076;48.076;9.118;2023-06-26T13:18:57;30.30;42.60
8067;DHT22;4076;48.076;9.118;2023-06-26T13:21:23;30.40;43.20
8067;DHT22;4076;48.076;9.118;2023-06-26T13:23:49;30.60;43.20
8067;DHT22;4076;48.076;9.118;2023-06-26T13:26:14;30.80;43.30
8067;DHT22;4076;48.076;9.118;2023-06-26T13:28:40;30.90;42.80
8067;DHT22;4076;48.076;9.118;2023-06-26T13:31:06;31.00;42.10
8067;DHT22;4076;48.076;9.118;2023-06-26T13:33:31;31.20;42.60
8067;DHT22;4076;48.076;9.118;2023-06-26T13:35:57;31.30;42.60
8067;DHT22;4076;48.076;9.118;2023-06-26T13:38:25;31.40;41.20
8067;DHT22;4076;48.076;9.118;2023-06-26T13:40:54;31.30;41.80
8067;DHT22;4076;48.076;9.118;2023-06-26T13:43:22;31.10;42.00
8067;DHT22;4076;48.076;9.118;2023-06-26T13:45:48;30.90;42.20
8067;DHT22;4076;48.076;9.118;2023-06-26T13:48:14;30.80;42.50
8067;DHT22;4076;48.076;9.118;2023-06-26T13:50:40;30.80;42.50
8067;DHT22;4076;48.076;9.118;2023-06-26T13:53:06;30.80;42.80
8067;DHT22;4076;48.076;9.118;2023-06-26T13:55:32;30.80;42.50
8067;DHT22;4076;48.076;9.118;2023-06-26T13:57:58;30.80;42.70
8067;DHT22;4076;48.076;9.118;2023-06-26T14:00:24;30.90;43.00
8067;DHT22;4076;48.076;9.118;2023-06-26T14:02:50;30.90;44.10
8067;DHT22;4076;48.076;9.118;2023-06-26T14:05:16;31.00;43.00
8067;DHT22;4076;48.076;9.118;2023-06-26T14:07:44;31.00;42.90
8067;DHT22;4076;48.076;9.118;2023-06-26T14:10:09;30.90;42.60
8067;DHT22;4076;48.076;9.118;2023-06-26T14:12:35;30.80;42.80
8067;DHT22;4076;48.076;9.118;2023-06-26T14:15:00;30.70;42.90
8067;DHT22;4076;48.076;9.118;2023-06-26T14:17:26;30.70;43.60
8067;DHT22;4076;48.076;9.118;2023-06-26T14:19:52;30.60;43.20
8067;DHT22;4076;48.076;9.118;2023-06-26T14:22:18;30.60;43.30
8067;DHT22;4076;48.076;9.118;2023-06-26T14:24:44;30.60;43.60
8067;DHT22;4076;48.076;9.118;2023-06-26T14:27:10;30.70;43.20
8067;DHT22;4076;48.076;9.118;2023-06-26T14:29:36;30.80;42.60
8067;DHT22;4076;48.076;9.118;2023-06-26T14:32:02;30.80;42.50
8067;DHT22;4076;48.076;9.118;2023-06-26T14:34:28;30.80;42.10
8067;DHT22;4076;48.076;9.118;2023-06-26T14:36:54;30.70;42.30
8067;DHT22;4076;48.076;9.118;2023-06-26T14:39:19;30.70;42.00
8067;DHT22;4076;48.076;9.118;2023-06-26T14:41:45;30.60;42.30
8067;DHT22;4076;48.076;9.118;2023-06-26T14:44:12;30.50;42.40
8067;DHT22;4076;48.076;9.118;2023-06-26T14:46:38;30.50;42.40
8067;DHT22;4076;48.076;9.118;2023-06-26T14:49:04;30.50;42.40
8067;DHT22;4076;48.076;9.118;2023-06-26T14:51:30;30.50;43.10
8067;DHT22;4076;48.076;9.118;2023-06-26T14:53:55;30.50;43.40
8067;DHT22;4076;48.076;9.118;2023-06-26T14:56:21;30.50;43.60
8067;DHT22;4076;48.076;9.118;2023-06-26T14:58:46;30.40;43.20
8067;DHT22;4076;48.076;9.118;2023-06-26T15:01:12;30.30;43.30
8067;DHT22;4076;48.076;9.118;2023-06-26T15:03:41;30.20;43.50
8067;DHT22;4076;48.076;9.118;2023-06-26T15:06:06;30.10;44.50
8067;DHT22;4076;48.076;9.118;2023-06-26T15:08:32;30.10;45.70
8067;DHT22;4076;48.076;9.118;2023-06-26T15:10:58;30.20;45.10
8067;DHT22;4076;48.076;9.118;2023-06-26T15:13:23;30.20;44.90
8067;DHT22;4076;48.076;9.118;2023-06-26T15:15:49;30.10;44.60
8067;DHT22;4076;48.076;9.118;2023-06-26T15:18:15;29.90;44.50
8067;DHT22;4076;48.076;9.118;2023-06-26T15:20:40;29.90;44.90
8067;DHT22;4076;48.076;9.118;2023-06-26T15:23:06;29.80;44.80
8067;DHT22;4076;48.076;9.118;2023-06-26T15:25:31;29.70;44.80
8067;DHT22;4076;48.076;9.118;2023-06-26T15:28:00;29.60;44.70
8067;DHT22;4076;48.076;9.118;2023-06-26T15:30:26;29.50;45.40
8067;DHT22;4076;48.076;9.118;2023-06-26T15:32:51;29.50;45.30
8067;DHT22;4076;48.076;9.118;2023-06-26T15:35:17;29.50;45.80
8067;DHT22;4076;48.076;9.118;2023-06-26T15:37:42;29.40;46.00
8067;DHT22;4076;48.076;9.118;2023-06-26T15:40:08;29.40;45.70
8067;DHT22;4076;48.076;9.118;2023-06-26T15:42:48;29.40;45.60
8067;DHT22;4076;48.076;9.118;2023-06-26T15:45:14;29.30;45.60
8067;DHT22;4076;48.076;9.118;2023-06-26T15:47:40;29.10;45.60
8067;DHT22;4076;48.076;9.118;2023-06-26T15:50:07;28.90;45.80
8067;DHT22;4076;48.076;9.118;2023-06-26T15:52:33;28.80;46.50
8067;DHT22;4076;48.076;9.118;2023-06-26T15:54:58;28.70;46.40
8067;DHT22;4076;48.076;9.118;2023-06-26T15:57:24;28.60;46.50
8067;DHT22;4076;48.076;9.118;2023-06-26T15:59:49;28.50;47.10
8067;DHT22;4076;48.076;9.118;2023-06-26T16:02:15;28.40;46.80
8067;DHT22;4076;48.076;9.118;2023-06-26T16:04:41;28.30;47.20
8067;DHT22;4076;48.076;9.118;2023-06-26T16:07:06;28.20;46.70
8067;DHT22;4076;48.076;9.118;2023-06-26T16:09:32;28.10;47.10
8067;DHT22;4076;48.076;9.118;2023-06-26T16:11:58;28.00;47.50